createdAt,value
2023-05-05T00:06:40.602Z,3.80
2023-05-05T00:08:40.097Z,4.80
2023-05-05T00:13:10.895Z,4.10
2023-05-05T00:16:41.028Z,8.00
2023-05-05T00:19:41.195Z,3.80
2023-05-05T00:22:12.740Z,4.00
2023-05-05T00:27:46.959Z,5.10
2023-05-05T00:29:14.921Z,5.10
2023-05-05T00:34:19.392Z,11.10
2023-05-05T00:41:55.803Z,6.30
2023-05-05T00:54:40.781Z,3.80
2023-05-05T00:57:40.211Z,5.10
2023-05-05T01:00:13.444Z,4.50
2023-05-05T01:01:43.188Z,5.10
2023-05-05T01:03:43.315Z,8.00
2023-05-05T01:05:13.683Z,4.00
2023-05-05T01:07:45.526Z,4.60
2023-05-05T01:12:16.771Z,5.40
2023-05-05T01:15:18.634Z,5.20
2023-05-05T01:20:20.987Z,5.30
2023-05-05T01:35:01.585Z,4.90
2023-05-05T01:37:03.617Z,5.20
2023-05-05T01:41:10.166Z,8.00
2023-05-05T01:44:12.041Z,9.20
2023-05-05T01:47:14.784Z,6.50
2023-05-05T02:02:49.614Z,5.80
2023-05-05T02:08:52.816Z,7.30
2023-05-05T02:12:30.368Z,4.10
2023-05-05T02:19:57.646Z,5.40
2023-05-05T02:22:30.976Z,4.90
2023-05-05T02:28:08.256Z,5.70
2023-05-05T02:29:41.560Z,5.10
2023-05-05T02:31:46.095Z,5.50
2023-05-05T02:33:44.645Z,4.80
2023-05-05T02:37:15.472Z,7.60
2023-05-05T02:46:54.762Z,4.40
2023-05-05T02:48:22.574Z,6.10
2023-05-05T02:54:58.751Z,5.30
2023-05-05T02:58:33.023Z,5.20
2023-05-05T03:00:32.160Z,5.90
2023-05-05T03:03:32.476Z,5.80
2023-05-05T03:05:36.080Z,6.20
2023-05-05T03:08:05.465Z,5.80
2023-05-05T03:09:36.178Z,4.50
2023-05-05T03:15:07.130Z,7.30
2023-05-05T03:26:29.108Z,6.80
2023-05-05T03:34:08.891Z,4.70
2023-05-05T03:39:11.353Z,6.90
2023-05-05T03:42:12.409Z,6.30
2023-05-05T03:43:42.515Z,4.50
2023-05-05T03:48:43.172Z,5.50
2023-05-05T03:56:49.420Z,5.70
2023-05-05T03:58:51.491Z,6.90
2023-05-05T04:03:22.543Z,6.00
2023-05-05T04:05:52.910Z,6.80
2023-05-05T04:08:23.626Z,7.50
2023-05-05T04:11:52.017Z,6.50
2023-05-05T04:16:51.592Z,6.40
2023-05-05T04:18:24.424Z,9.90
2023-05-05T04:19:54.173Z,7.90
2023-05-05T04:25:55.196Z,9.50
2023-05-05T04:28:26.353Z,7.00
2023-05-05T04:32:30.927Z,8.60
2023-05-05T04:33:59.662Z,8.10
2023-05-05T04:35:29.769Z,10.20
2023-05-05T04:40:37.785Z,8.00
2023-05-05T04:42:10.276Z,11.50
2023-05-05T04:45:12.217Z,8.10
2023-05-05T04:51:25.748Z,8.80
2023-05-05T05:00:12.504Z,10.70
2023-05-05T05:01:41.817Z,8.50
2023-05-05T05:06:48.181Z,6.80
2023-05-05T05:10:51.480Z,8.60
2023-05-05T05:12:56.901Z,9.20
2023-05-05T05:14:27.756Z,8.40
2023-05-05T05:15:59.533Z,10.80
2023-05-05T05:17:30.505Z,7.20
2023-05-05T05:19:01.784Z,11.50
2023-05-05T05:22:03.212Z,12.60
2023-05-05T05:23:40.917Z,8.30
2023-05-05T05:33:24.815Z,12.90
2023-05-05T05:37:03.532Z,8.00
2023-05-05T05:38:32.810Z,8.50
2023-05-05T05:41:05.204Z,8.40
2023-05-05T05:43:40.838Z,8.50
2023-05-05T05:45:11.723Z,8.40
2023-05-05T05:46:42.785Z,10.00
2023-05-05T05:52:52.176Z,9.20
2023-05-05T05:56:59.566Z,8.70
2023-05-05T05:58:31.237Z,9.90
2023-05-05T06:01:30.058Z,7.50
2023-05-05T06:03:02.050Z,10.80
2023-05-05T06:05:33.232Z,8.00
2023-05-05T06:12:11.323Z,8.70
2023-05-05T06:14:12.580Z,7.90
2023-05-05T06:17:14.444Z,7.40
2023-05-05T06:19:45.182Z,7.20
2023-05-05T06:21:44.761Z,8.20
2023-05-05T06:23:43.573Z,6.90
2023-05-05T06:30:14.315Z,5.80
2023-05-05T06:36:52.535Z,6.70
2023-05-05T06:40:56.565Z,8.10
2023-05-05T06:42:28.290Z,6.00
2023-05-05T06:45:11.373Z,5.30
2023-05-05T06:48:15.648Z,5.80
2023-05-05T06:49:46.611Z,6.50
2023-05-05T06:51:46.989Z,7.30
2023-05-05T06:53:49.917Z,7.30
2023-05-05T06:55:20.019Z,5.60
2023-05-05T06:56:19.187Z,8.20
2023-05-05T06:57:19.179Z,6.00
2023-05-05T06:58:19.155Z,6.60
2023-05-05T06:59:49.564Z,6.80
2023-05-05T07:02:24.044Z,8.80
2023-05-05T07:04:28.973Z,5.10
2023-05-05T07:07:31.580Z,6.30
2023-05-05T07:10:31.796Z,5.90
2023-05-05T07:13:35.273Z,5.10
2023-05-05T07:16:06.012Z,8.30
2023-05-05T07:17:35.337Z,5.60
2023-05-05T07:19:06.483Z,5.90
2023-05-05T07:20:37.206Z,7.10
2023-05-05T07:24:10.993Z,5.80
2023-05-05T07:27:43.177Z,5.20
2023-05-05T07:29:12.951Z,6.00
2023-05-05T07:32:53.656Z,7.70
2023-05-05T07:34:56.507Z,9.30
2023-05-05T07:37:28.887Z,4.60
2023-05-05T07:44:11.129Z,5.10
2023-05-05T07:48:15.236Z,6.30
2023-05-05T07:51:17.116Z,7.30
2023-05-05T07:54:15.699Z,8.80
2023-05-05T07:57:17.558Z,7.40
2023-05-05T07:59:52.364Z,6.30
2023-05-05T08:03:54.102Z,7.70
2023-05-05T08:06:23.216Z,6.50
2023-05-05T08:08:52.249Z,5.60
2023-05-05T08:11:22.949Z,11.50
2023-05-05T08:14:23.978Z,6.40
2023-05-05T08:16:23.114Z,7.50
2023-05-05T08:18:56.859Z,8.30
2023-05-05T08:20:57.225Z,5.50
2023-05-05T08:22:26.804Z,5.80
2023-05-05T08:28:00.850Z,7.30
2023-05-05T08:30:01.199Z,5.60
2023-05-05T08:32:04.052Z,6.60
2023-05-05T08:34:37.238Z,8.00
2023-05-05T08:37:12.070Z,6.80
2023-05-05T08:39:16.590Z,5.80
2023-05-05T08:40:46.715Z,4.40
2023-05-05T08:47:23.275Z,8.50
2023-05-05T08:48:52.495Z,5.90
2023-05-05T08:56:02.843Z,5.70
2023-05-05T09:00:33.728Z,8.00
2023-05-05T09:03:07.896Z,9.40
2023-05-05T09:04:39.072Z,5.90
2023-05-05T09:07:11.883Z,6.50
2023-05-05T09:12:17.422Z,6.60
2023-05-05T09:17:45.058Z,5.80
2023-05-05T09:19:48.412Z,6.50
2023-05-05T09:21:18.106Z,8.20
2023-05-05T09:25:47.596Z,6.80
2023-05-05T09:31:48.870Z,5.80
2023-05-05T09:34:18.767Z,4.70
2023-05-05T09:40:21.719Z,6.50
2023-05-05T09:41:50.941Z,3.70
2023-05-05T09:45:25.602Z,4.50
2023-05-05T09:46:54.932Z,3.10
2023-05-05T09:48:56.572Z,3.30
2023-05-05T09:52:29.579Z,4.60
2023-05-05T09:54:01.742Z,4.40
2023-05-05T09:57:33.519Z,4.00
2023-05-05T09:59:02.838Z,4.10
2023-05-05T10:00:31.557Z,4.70
2023-05-05T10:02:06.383Z,4.00
2023-05-05T10:03:34.342Z,4.80
2023-05-05T10:05:03.904Z,4.40
2023-05-05T10:06:37.217Z,2.00
2023-05-05T10:08:39.007Z,3.70
2023-05-05T10:13:07.566Z,7.30
2023-05-05T10:15:08.448Z,7.70
2023-05-05T10:19:14.117Z,2.80
2023-05-05T10:21:49.683Z,3.00
2023-05-05T10:23:19.903Z,4.40
2023-05-05T10:24:19.872Z,3.70
2023-05-05T10:25:21.685Z,3.30
2023-05-05T10:27:49.122Z,2.60
2023-05-05T10:29:48.176Z,2.70
2023-05-05T10:31:25.678Z,3.70
2023-05-05T10:34:50.791Z,3.10
2023-05-05T10:36:20.482Z,2.10
2023-05-05T10:38:26.184Z,2.00
2023-05-05T10:39:55.933Z,0.70
2023-05-05T10:41:26.482Z,1.50
2023-05-05T10:44:58.698Z,1.60
2023-05-05T10:45:58.143Z,1.40
2023-05-05T10:46:57.906Z,1.00
2023-05-05T10:47:57.848Z,0.70
2023-05-05T10:52:30.840Z,1.60
2023-05-05T10:55:37.504Z,3.30
2023-05-05T10:58:55.403Z,1.50
2023-05-05T11:00:14.575Z,2.10
2023-05-05T11:01:40.832Z,1.90
2023-05-05T11:04:11.704Z,1.60
2023-05-05T11:06:12.669Z,0.50
2023-05-05T11:07:42.384Z,2.40
2023-05-05T11:10:45.639Z,2.50
2023-05-05T11:12:15.366Z,3.20
2023-05-05T11:16:17.364Z,2.70
2023-05-05T11:17:45.918Z,3.70
2023-05-05T11:21:43.305Z,1.30
2023-05-05T11:27:02.961Z,2.10
2023-05-05T11:28:32.191Z,2.30
2023-05-05T11:30:05.675Z,0.30
2023-05-05T11:34:37.017Z,0.90
2023-05-05T11:36:35.637Z,1.50
2023-05-05T11:38:06.163Z,2.50
2023-05-05T11:40:06.873Z,0.80
2023-05-05T11:44:11.809Z,2.00
2023-05-05T11:48:18.104Z,0.60
2023-05-05T11:51:18.688Z,2.60
2023-05-05T11:54:18.890Z,0.50
2023-05-05T11:55:49.040Z,1.00
2023-05-05T11:57:18.744Z,1.30
2023-05-05T12:00:21.419Z,1.90
2023-05-05T12:07:58.994Z,4.60
2023-05-05T12:13:32.509Z,1.30
2023-05-05T12:15:03.272Z,2.90
2023-05-05T12:20:07.946Z,1.40
2023-05-05T12:22:07.105Z,2.70
2023-05-05T12:26:41.092Z,4.30
2023-05-05T12:29:49.726Z,3.40
2023-05-05T12:33:20.038Z,1.70
2023-05-05T12:34:50.558Z,2.50
2023-05-05T12:36:18.264Z,6.20
2023-05-05T12:39:51.874Z,2.70
2023-05-05T12:44:25.436Z,1.80
2023-05-05T12:47:28.864Z,1.60
2023-05-05T12:49:58.073Z,2.90
2023-05-05T12:51:27.246Z,1.90
2023-05-05T12:54:00.422Z,2.20
2023-05-05T12:55:29.333Z,2.40
2023-05-05T12:59:32.542Z,3.90
2023-05-05T13:05:04.695Z,3.90
2023-05-05T13:06:34.063Z,1.00
2023-05-05T13:08:36.685Z,2.30
2023-05-05T13:10:08.576Z,1.90
2023-05-05T13:12:06.715Z,1.70
2023-05-05T13:14:04.383Z,1.40
2023-05-05T13:15:33.186Z,1.30
2023-05-05T13:17:36.921Z,0.50
2023-05-05T13:19:07.774Z,3.90
2023-05-05T13:20:37.858Z,4.00
2023-05-05T13:25:45.084Z,2.30
2023-05-05T13:27:15.189Z,3.40
2023-05-05T13:28:45.313Z,0.80
2023-05-05T13:37:54.170Z,0.60
2023-05-05T13:41:55.858Z,3.10
2023-05-05T13:45:28.814Z,3.00
2023-05-05T13:49:32.129Z,7.60
2023-05-05T13:51:34.201Z,5.20
2023-05-05T13:53:05.169Z,2.90
2023-05-05T13:59:07.681Z,3.30
2023-05-05T14:00:40.795Z,7.50
2023-05-05T14:02:09.085Z,4.70
2023-05-05T14:05:40.436Z,2.90
2023-05-05T14:08:11.149Z,5.20
2023-05-05T14:10:11.894Z,2.00
2023-05-05T14:13:47.041Z,1.70
2023-05-05T14:15:17.117Z,2.90
2023-05-05T14:17:19.204Z,0.50
2023-05-05T14:18:49.298Z,0.50
2023-05-05T14:20:18.601Z,0.70
2023-05-05T14:21:47.916Z,0.80
2023-05-05T14:24:46.085Z,0.40
2023-05-05T14:26:44.857Z,0.90
2023-05-05T14:30:51.440Z,1.10
2023-05-05T14:34:58.024Z,0.40
2023-05-05T14:36:59.273Z,0.40
2023-05-05T14:39:00.018Z,0.40
2023-05-05T14:43:03.423Z,0.30
2023-05-05T14:44:33.939Z,1.20
2023-05-05T14:46:04.544Z,0.60
2023-05-05T14:47:34.167Z,1.60
2023-05-05T14:50:03.798Z,1.10
2023-05-05T14:58:44.811Z,1.40
2023-05-05T15:00:11.778Z,2.60
2023-05-05T15:01:42.867Z,2.20
2023-05-05T15:03:11.800Z,0.60
2023-05-05T15:08:15.647Z,0.40
2023-05-05T15:14:25.124Z,1.30
2023-05-05T15:16:55.835Z,2.00
2023-05-05T15:18:57.072Z,2.30
2023-05-05T15:21:26.985Z,0.80
2023-05-05T15:22:57.110Z,1.50
2023-05-05T15:30:03.423Z,3.60
2023-05-05T15:33:33.917Z,3.20
2023-05-05T15:35:08.020Z,3.00
2023-05-05T15:39:40.812Z,1.20
2023-05-05T15:41:40.236Z,1.60
2023-05-05T15:44:13.426Z,1.70
2023-05-05T15:49:15.704Z,1.40
2023-05-05T15:56:23.672Z,1.10
2023-05-05T15:57:55.121Z,4.50
2023-05-05T15:59:25.198Z,1.00
2023-05-05T16:01:56.742Z,2.90
2023-05-05T16:03:28.779Z,1.20
2023-05-05T16:05:56.788Z,0.60
2023-05-05T16:10:32.026Z,1.00
2023-05-05T16:14:32.865Z,1.10
2023-05-05T16:17:03.650Z,1.10
2023-05-05T16:18:33.727Z,1.80
2023-05-05T16:22:06.736Z,1.20
2023-05-05T16:24:08.766Z,1.00
2023-05-05T16:33:20.097Z,3.70
2023-05-05T16:35:20.521Z,1.10
2023-05-05T16:36:50.137Z,1.10
2023-05-05T16:38:18.524Z,1.00
2023-05-05T16:41:18.844Z,0.90
2023-05-05T16:44:20.391Z,1.10
2023-05-05T16:46:20.853Z,1.50
2023-05-05T16:48:21.341Z,0.80
2023-05-05T16:50:26.266Z,3.50
2023-05-05T16:52:24.762Z,1.10
2023-05-05T16:54:26.582Z,5.50
2023-05-05T16:55:56.670Z,0.70
2023-05-05T16:58:27.435Z,0.80
2023-05-05T17:00:29.710Z,0.60
2023-05-05T17:01:58.043Z,1.60
2023-05-05T17:06:40.598Z,1.20
2023-05-05T17:08:10.683Z,2.80
2023-05-05T17:11:12.045Z,1.30
2023-05-05T17:17:45.216Z,0.40
2023-05-05T17:21:53.988Z,0.40
2023-05-05T17:23:24.132Z,1.30
2023-05-05T17:26:56.298Z,1.00
2023-05-05T17:31:58.636Z,2.50
2023-05-05T17:34:59.601Z,0.50
2023-05-05T17:36:29.901Z,2.10
2023-05-05T17:40:01.898Z,1.80
2023-05-05T17:53:11.102Z,0.80
2023-05-05T18:01:15.787Z,1.20
2023-05-05T18:04:18.420Z,1.60
2023-05-05T18:05:18.399Z,1.10
2023-05-05T18:06:18.372Z,1.50
2023-05-05T18:07:18.388Z,1.10
2023-05-05T18:09:19.085Z,1.70
2023-05-05T18:10:50.019Z,1.60
2023-05-05T18:13:24.985Z,1.20
2023-05-05T18:18:27.144Z,1.20
2023-05-05T18:22:35.097Z,1.50
2023-05-05T18:26:09.174Z,2.30
2023-05-05T18:28:09.588Z,0.90
2023-05-05T18:32:12.907Z,2.30
2023-05-05T18:35:14.745Z,1.30
2023-05-05T18:37:47.115Z,0.70
2023-05-05T18:39:47.534Z,1.30
2023-05-05T18:44:21.969Z,1.00
2023-05-05T18:45:53.750Z,1.20
2023-05-05T18:47:54.227Z,1.70
2023-05-05T18:52:29.381Z,0.80
2023-05-05T18:55:05.865Z,0.80
2023-05-05T19:00:07.315Z,0.80
2023-05-05T19:04:41.848Z,3.30
2023-05-05T19:10:24.196Z,1.30
2023-05-05T19:11:54.277Z,1.80
2023-05-05T19:13:24.545Z,2.90
2023-05-05T19:14:56.157Z,2.50
2023-05-05T19:20:32.864Z,3.20
2023-05-05T19:24:04.200Z,2.10
2023-05-05T19:31:39.711Z,1.60
2023-05-05T19:36:14.097Z,2.10
2023-05-05T19:41:20.481Z,2.30
2023-05-05T19:43:20.912Z,3.00
2023-05-05T19:45:21.337Z,2.60
2023-05-05T19:50:58.044Z,3.10
2023-05-05T19:55:01.846Z,2.80
2023-05-05T20:08:19.257Z,2.40
2023-05-05T20:09:50.152Z,1.80
2023-05-05T20:12:22.732Z,2.20
2023-05-05T20:15:54.808Z,3.20
2023-05-05T20:19:27.270Z,1.80
2023-05-05T20:26:40.233Z,1.50
2023-05-05T20:30:11.933Z,2.80
2023-05-05T20:31:41.747Z,1.90
2023-05-05T20:34:11.907Z,5.50
2023-05-05T20:36:44.860Z,3.20
2023-05-05T20:38:14.946Z,2.10
2023-05-05T20:42:17.432Z,3.70
2023-05-05T20:54:30.589Z,2.90
2023-05-05T21:00:37.326Z,3.70
2023-05-05T21:05:07.392Z,2.80
2023-05-05T21:08:11.422Z,4.50
2023-05-05T21:09:41.545Z,3.20
2023-05-05T21:12:13.904Z,3.70
2023-05-05T21:13:43.217Z,4.20
2023-05-05T21:15:46.102Z,2.90
2023-05-05T21:18:48.777Z,2.30
2023-05-05T21:20:20.522Z,3.90
2023-05-05T21:25:53.124Z,4.10
2023-05-05T21:28:59.081Z,4.30
2023-05-05T21:30:28.807Z,2.90
2023-05-05T21:34:05.434Z,2.80
2023-05-05T21:35:36.399Z,2.50
2023-05-05T21:37:09.763Z,2.90
2023-05-05T21:38:39.063Z,3.70
2023-05-05T21:40:09.401Z,3.50
2023-05-05T21:42:40.727Z,3.80
2023-05-05T21:44:10.849Z,3.50
2023-05-05T21:45:40.955Z,3.00
2023-05-05T21:50:29.394Z,4.30
2023-05-05T21:51:56.995Z,3.20
2023-05-05T21:55:56.201Z,2.60
2023-05-05T21:58:57.234Z,2.90
2023-05-05T22:01:28.878Z,4.50
2023-05-05T22:14:10.627Z,3.80
2023-05-05T22:15:46.759Z,4.20
2023-05-05T22:17:42.827Z,2.90
2023-05-05T22:20:13.593Z,2.90
2023-05-05T22:21:43.688Z,4.00
2023-05-05T22:25:17.478Z,2.60
2023-05-05T22:28:20.146Z,5.30
2023-05-05T22:31:24.579Z,2.50
2023-05-05T22:35:26.965Z,3.60
2023-05-05T22:43:32.752Z,4.40
2023-05-05T22:49:11.133Z,5.20
2023-05-05T22:50:44.454Z,3.40
2023-05-05T22:54:46.131Z,4.50
2023-05-05T23:03:32.047Z,3.10
2023-05-05T23:06:06.917Z,3.80
2023-05-05T23:11:12.444Z,4.10
2023-05-05T23:19:19.910Z,4.00
2023-05-05T23:24:24.651Z,3.70
2023-05-05T23:30:25.901Z,3.70
2023-05-05T23:31:55.981Z,2.60
2023-05-05T23:35:28.184Z,2.60
2023-05-05T23:38:33.307Z,5.10
2023-05-05T23:40:33.711Z,4.20
2023-05-05T23:44:36.217Z,5.50
2023-05-05T23:46:36.788Z,4.40
2023-05-05T23:50:12.890Z,3.50
2023-05-05T23:51:43.008Z,3.60
2023-05-05T23:53:48.336Z,4.30
2023-05-05T23:55:48.378Z,4.10
2023-05-05T23:59:49.601Z,3.70
